< < Back
Terminal Aerodrome Forecast


Current Version              Previous Versions:   1  2  3  4  5  6  7  8  9  

Terminal Aerodrome Forecast

299
FTUS42 KTAE 192100 AAC
TAFVLD
TAF AMD
KVLD 192131Z 1922/2018 26006KT P6SM VCTS SCT035CB BKN250
     FM200200 VRB02KT P6SM SCT250
      TEMPO 2010/2014 4SM BR SCT003
     FM201400 29005KT P6SM SCT250=



Latest METAR

236
SAUS70 KWBC 200400 RRB
MTRVLD
METAR KVLD 200353Z AUTO 17005KT 10SM CLR 24/23 A2998 RMK AO2 SLP157
T02440228 PNO $


USA.gov is the U.S. government's official web portal to all federal, state and local government web resources and services.